Time;durP1;ratioP1;P1;durP2;ratioP2;P2;SDS_P1;SDS_P2;PMS_P1;PMS_P2;Temp;Humidity;BMP_temperature;BMP_pressure;BME280_temperature;BME280_humidity;BME280_pressure;Samples;Min_cycle;Max_cycle;Signal;HPM_P1;HPM_P2
2021/06/30 00:03:39;;;;;;;5.03;2.10;;;13.70;99.90;;;;;;21374785;27;20292;-52
2021/06/30 00:13:59;;;;;;;13.10;3.08;;;13.40;99.90;;;;;;21171716;27;20364;-48
2021/06/30 00:24:19;;;;;;;4.40;2.43;;;13.10;99.90;;;;;;20975875;28;20390;-50
2021/06/30 00:34:39;;;;;;;3.83;2.85;;;12.90;99.90;;;;;;21235204;27;1377500;-52
2021/06/30 00:44:59;;;;;;;7.60;2.77;;;12.80;99.90;;;;;;20750226;28;20404;-51
2021/06/30 00:55:23;;;;;;;3.77;2.47;;;12.80;99.90;;;;;;21189053;27;20116;-51
2021/06/30 01:05:46;;;;;;;4.40;2.63;;;13.00;99.90;;;;;;21126628;27;20385;-50
2021/06/30 01:16:07;;;;;;;5.05;2.40;;;13.20;99.90;;;;;;21199078;27;20149;-48
2021/06/30 01:26:28;;;;;;;2.80;2.33;;;13.10;99.90;;;;;;21143109;27;20129;-50
2021/06/30 01:36:50;;;;;;;5.70;3.33;;;12.80;99.90;;;;;;20975274;28;20378;-53
2021/06/30 01:47:12;;;;;;;4.17;3.17;;;12.40;99.90;;;;;;21365625;27;20113;-52
2021/06/30 01:57:31;;;;;;;5.37;2.80;;;12.30;99.90;;;;;;21059593;28;20678;-49
2021/06/30 02:07:53;;;;;;;4.60;3.60;;;12.20;99.90;;;;;;20976139;28;20374;-50
2021/06/30 02:18:13;;;;;;;6.73;4.40;;;12.40;99.90;;;;;;21228414;27;20414;-51
2021/06/30 02:28:35;;;;;;;5.83;4.37;;;12.20;99.90;;;;;;21365886;27;20724;-52
2021/06/30 02:38:59;;;;;;;9.23;4.40;;;12.10;99.90;;;;;;21179397;27;20420;-52
2021/06/30 02:49:17;;;;;;;5.57;4.40;;;11.90;99.90;;;;;;21144764;27;1518330;-51
2021/06/30 02:59:38;;;;;;;5.70;4.47;;;11.70;99.90;;;;;;21186460;27;20112;-49
2021/06/30 03:09:58;;;;;;;6.60;3.60;;;11.60;99.90;;;;;;21371390;27;20299;-47
2021/06/30 03:20:18;;;;;;;7.63;3.43;;;11.80;99.90;;;;;;21143905;27;20884;-50
2021/06/30 03:30:38;;;;;;;6.23;3.10;;;11.80;99.90;;;;;;20976165;28;20386;-48
2021/06/30 03:40:59;;;;;;;5.60;2.50;;;11.70;99.90;;;;;;20776898;28;20392;-51
2021/06/30 03:51:20;;;;;;;2.70;2.03;;;11.60;99.90;;;;;;21143956;27;20368;-49
2021/06/30 04:01:47;;;;;;;3.60;2.13;;;11.60;99.90;;;;;;21366143;27;20637;-51
2021/06/30 04:12:07;;;;;;;4.03;2.20;;;11.70;99.90;;;;;;21374508;27;20597;-53
2021/06/30 04:22:28;;;;;;;3.10;2.43;;;12.00;99.90;;;;;;20975973;28;20382;-52
2021/06/30 04:32:48;;;;;;;5.10;2.20;;;12.10;99.90;;;;;;20976268;28;20488;-48
2021/06/30 04:43:09;;;;;;;4.33;2.13;;;12.20;99.90;;;;;;21144541;27;20380;-52
2021/06/30 04:53:28;;;;;;;4.33;2.57;;;12.20;99.90;;;;;;21188165;27;20713;-52
2021/06/30 05:03:49;;;;;;;3.03;2.63;;;12.30;99.90;;;;;;21193450;27;20581;-51
2021/06/30 05:14:08;;;;;;;4.53;3.25;;;12.40;99.90;;;;;;21373296;27;19946;-49
2021/06/30 05:24:27;;;;;;;4.87;3.53;;;12.50;99.90;;;;;;21365898;27;20615;-52
2021/06/30 05:34:47;;;;;;;9.88;4.25;;;12.60;99.90;;;;;;21194853;27;20108;-49
2021/06/30 05:45:09;;;;;;;9.18;3.75;;;12.80;99.90;;;;;;21143756;27;20479;-53
2021/06/30 05:55:28;;;;;;;6.85;2.95;;;13.10;99.90;;;;;;20979165;27;20394;-52
2021/06/30 06:05:48;;;;;;;5.13;2.40;;;13.80;99.90;;;;;;21230713;27;1443541;-50
2021/06/30 06:16:09;;;;;;;2.53;1.65;;;14.70;99.90;;;;;;20975550;28;20389;-51
2021/06/30 06:26:27;;;;;;;1.60;1.30;;;18.40;99.90;;;;;;21364146;27;20102;-50
2021/06/30 06:36:49;;;;;;;2.40;1.38;;;26.50;81.10;;;;;;20977908;28;21038;-51
2021/06/30 06:47:11;;;;;;;5.07;1.42;;;26.60;80.30;;;;;;21228300;27;20117;-54
2021/06/30 06:57:37;;;;;;;1.33;1.17;;;29.30;65.90;;;;;;21189511;27;20121;-52
2021/06/30 07:07:57;;;;;;;4.05;1.10;;;29.10;66.00;;;;;;20975385;28;20831;-51
2021/06/30 07:18:16;;;;;;;9.48;2.00;;;30.00;63.50;;;;;;21228307;27;20367;-50
2021/06/30 07:28:37;;;;;;;2.88;2.58;;;30.50;63.10;;;;;;21228603;27;20377;-48
2021/06/30 07:38:57;;;;;;;2.90;2.50;;;30.70;62.30;;;;;;20975906;28;20379;-54
2021/06/30 07:49:19;;;;;;;5.72;2.42;;;;;;;;;;21192661;27;20290;-50
2021/06/30 07:59:39;;;;;;;4.47;2.30;;;30.30;90.10;;;;;;21363707;27;20106;-54
2021/06/30 08:10:00;;;;;;;4.07;2.38;;;26.00;66.20;;;;;;21143106;27;20384;-52
2021/06/30 08:20:20;;;;;;;3.72;1.73;;;22.60;75.70;;;;;;20759501;28;20921;-50
2021/06/30 08:30:41;;;;;;;4.20;2.67;;;21.60;80.00;;;;;;21187251;27;20425;-48
2021/06/30 08:41:04;;;;;;;4.40;2.88;;;21.20;81.30;;;;;;21360103;27;20300;-52
2021/06/30 08:51:26;;;;;;;4.20;2.88;;;20.50;83.90;;;;;;21058514;28;20595;-53
2021/06/30 09:01:47;;;;;;;8.35;3.90;;;20.10;86.60;;;;;;21142574;27;20133;-48
2021/06/30 09:12:08;;;;;;;3.90;3.20;;;20.10;89.90;;;;;;20939633;28;20409;-51
2021/06/30 09:22:51;;;;;;;7.10;3.85;;;20.00;90.50;;;;;;21187513;27;20375;-49
2021/06/30 09:33:11;;;;;;;5.00;3.30;;;21.60;91.70;;;;;;20975375;28;20917;-54
2021/06/30 09:43:34;;;;;;;3.47;3.03;;;22.00;91.90;;;;;;21188101;27;20379;-52
2021/06/30 09:54:11;;;;;;;4.53;4.10;;;24.50;82.90;;;;;;21353913;27;20423;-51
2021/06/30 10:04:34;;;;;;;4.95;3.80;;;25.30;80.60;;;;;;20975413;28;20392;-50
2021/06/30 10:14:58;;;;;;;6.55;5.05;;;26.00;83.70;;;;;;21186655;27;20391;-49
2021/06/30 10:25:20;;;;;;;8.40;5.95;;;27.70;77.90;;;;;;21143202;27;20372;-51
2021/06/30 10:35:47;;;;;;;9.35;5.07;;;27.90;74.20;;;;;;21358714;27;20297;-48
2021/06/30 10:46:27;;;;;;;9.65;4.25;;;28.00;76.90;;;;;;21363503;27;20508;-54
2021/06/30 10:57:31;;;;;;;6.55;3.72;;;26.90;79.50;;;;;;21190281;27;20112;-52
2021/06/30 11:07:51;;;;;;;7.28;4.55;;;27.30;76.10;;;;;;21120506;27;20604;-48
2021/06/30 11:18:12;;;;;;;8.68;5.65;;;27.40;78.00;;;;;;20975462;28;20379;-52
2021/06/30 11:28:38;;;;;;;5.75;4.50;;;28.20;74.00;;;;;;20975440;28;20382;-52
2021/06/30 11:39:07;;;;;;;7.97;4.97;;;27.40;76.30;;;;;;21186659;27;20382;-52
2021/06/30 11:49:27;;;;;;;6.80;4.20;;;27.40;74.70;;;;;;20975565;28;20382;-52
2021/06/30 11:59:47;;;;;;;5.95;4.55;;;27.40;72.90;;;;;;21143008;27;20380;-53
2021/06/30 12:10:13;;;;;;;4.45;3.33;;;26.70;72.90;;;;;;21142999;27;20400;-49
2021/06/30 12:20:33;;;;;;;5.68;3.13;;;25.40;75.10;;;;;;21143110;27;20380;-49
2021/06/30 12:30:56;;;;;;;4.75;2.92;;;25.40;78.10;;;;;;21122708;27;20391;-51
2021/06/30 12:41:18;;;;;;;5.65;2.50;;;24.40;78.30;;;;;;21183231;27;20112;-53
2021/06/30 12:51:40;;;;;;;2.28;1.40;;;25.60;72.70;;;;;;20974978;28;20126;-54
2021/06/30 13:02:16;;;;;;;4.78;1.20;;;25.60;73.30;;;;;;20893015;28;20388;-51
2021/06/30 13:12:37;;;;;;;3.05;1.05;;;27.40;71.30;;;;;;21143467;27;20395;-54
2021/06/30 13:22:59;;;;;;;0.98;0.60;;;27.10;68.70;;;;;;21192017;27;20298;-50
2021/06/30 13:43:57;;;;;;;4.75;1.00;;;25.30;70.50;;;;;;21189950;27;20115;-51
2021/06/30 13:54:22;;;;;;;1.92;0.65;;;25.10;72.90;;;;;;20975377;28;20386;-51
2021/06/30 14:04:42;;;;;;;2.92;0.90;;;26.60;69.80;;;;;;20634017;28;20394;-51
2021/06/30 14:15:03;;;;;;;2.58;0.57;;;25.00;67.60;;;;;;21192416;27;20302;-52
2021/06/30 14:25:20;;;;;;;3.15;1.10;;;22.30;75.70;;;;;;21363877;27;20530;-53
2021/06/30 14:35:41;;;;;;;5.15;0.90;;;21.30;76.10;;;;;;21358349;27;20594;-53
2021/06/30 14:46:03;;;;;;;1.77;0.63;;;20.40;77.70;;;;;;21358259;27;20115;-52
2021/06/30 14:56:24;;;;;;;2.17;0.50;;;19.80;80.50;;;;;;21189830;27;20415;-49
2021/06/30 15:06:43;;;;;;;2.80;0.95;;;19.40;82.40;;;;;;21058431;28;20386;-54
2021/06/30 15:17:04;;;;;;;7.07;2.40;;;18.80;89.80;;;;;;21142937;27;20383;-50
2021/06/30 15:27:24;;;;;;;3.45;1.70;;;17.20;94.40;;;;;;21399594;27;19958;-49
2021/06/30 15:37:45;;;;;;;2.63;1.30;;;14.70;99.90;;;;;;21058937;28;20389;-53
2021/06/30 15:48:06;;;;;;;4.95;1.65;;;13.70;99.90;;;;;;21229081;27;20396;-53
2021/06/30 15:58:28;;;;;;;1.90;0.70;;;13.40;99.90;;;;;;21227346;27;20123;-50
2021/06/30 16:08:48;;;;;;;1.42;0.98;;;13.50;99.90;;;;;;21363277;27;20178;-54
2021/06/30 16:19:12;;;;;;;3.13;1.33;;;13.70;99.90;;;;;;20975361;28;20370;-54
2021/06/30 16:29:34;;;;;;;4.53;2.55;;;13.80;99.90;;;;;;21190936;27;20170;-54
2021/06/30 16:39:55;;;;;;;4.90;1.15;;;14.60;99.90;;;;;;21187335;27;20133;-51
2021/06/30 16:50:15;;;;;;;;;;;15.10;99.90;;;;;;21143673;27;20380;-51
2021/06/30 17:00:35;;;;;;;3.15;1.08;;;15.20;99.90;;;;;;21227551;27;1455840;-55
2021/06/30 17:10:56;;;;;;;;;;;15.50;99.90;;;;;;21228313;27;20920;-52
2021/06/30 17:21:19;;;;;;;3.72;1.60;;;14.90;99.90;;;;;;21187369;27;20378;-53
2021/06/30 17:31:40;;;;;;;3.85;1.33;;;14.40;99.90;;;;;;21058784;28;20110;-51
2021/06/30 17:42:01;;;;;;;4.10;1.10;;;14.00;99.90;;;;;;21191003;27;20305;-55
2021/06/30 17:52:22;;;;;;;2.17;1.20;;;14.00;99.90;;;;;;21363750;27;20461;-54
2021/06/30 18:02:42;;;;;;;;;;;13.90;99.90;;;;;;21233212;27;1383315;-53
2021/06/30 18:13:05;;;;;;;3.38;1.33;;;13.70;99.90;;;;;;21171133;27;20914;-54
2021/06/30 18:23:27;;;;;;;3.42;1.50;;;13.40;99.90;;;;;;21359125;27;20359;-51
2021/06/30 18:33:48;;;;;;;2.27;1.40;;;13.20;99.90;;;;;;20975605;28;20153;-51
2021/06/30 18:44:09;;;;;;;2.70;1.58;;;13.20;99.90;;;;;;20975730;28;20375;-54
2021/06/30 18:54:29;;;;;;;4.30;1.60;;;13.30;99.90;;;;;;21190910;27;20115;-52
2021/06/30 19:04:50;;;;;;;3.08;1.90;;;13.20;99.90;;;;;;21187924;27;20383;-50
2021/06/30 19:15:11;;;;;;;3.13;1.70;;;12.90;99.90;;;;;;21103189;27;20380;-49
2021/06/30 19:25:31;;;;;;;2.15;1.70;;;12.90;99.90;;;;;;21207673;27;2058101;-49
2021/06/30 19:35:52;;;;;;;4.57;1.80;;;12.60;99.90;;;;;;21181895;27;20139;-52
2021/06/30 19:46:14;;;;;;;2.47;1.63;;;12.50;99.90;;;;;;21229994;27;1462513;-48
2021/06/30 19:56:34;;;;;;;2.13;1.43;;;13.00;99.90;;;;;;20975151;28;20145;-50
2021/06/30 20:06:56;;;;;;;2.67;1.40;;;13.20;99.90;;;;;;21187996;27;20384;-50
2021/06/30 20:17:17;;;;;;;7.72;1.85;;;13.00;99.90;;;;;;20975174;28;20391;-50
2021/06/30 20:27:39;;;;;;;3.00;1.70;;;12.80;99.90;;;;;;20974469;28;20382;-52
2021/06/30 20:38:02;;;;;;;2.60;1.20;;;12.50;99.90;;;;;;21228266;27;20367;-63
2021/06/30 20:48:21;;;;;;;2.87;1.47;;;12.50;99.90;;;;;;21359101;27;20107;-64
2021/06/30 20:58:41;;;;;;;2.57;1.30;;;12.50;99.90;;;;;;20757048;28;20387;-64
2021/06/30 21:09:04;;;;;;;2.07;1.10;;;12.30;99.90;;;;;;21058795;28;20557;-61
2021/06/30 21:19:25;;;;;;;10.43;1.20;;;12.30;99.90;;;;;;21143137;27;20439;-62
2021/06/30 21:29:43;;;;;;;2.47;0.97;;;12.40;99.90;;;;;;21059407;28;20380;-64
2021/06/30 21:40:06;;;;;;;1.70;0.90;;;12.50;99.90;;;;;;21366172;27;20303;-63
2021/06/30 21:50:26;;;;;;;1.50;0.90;;;12.40;99.90;;;;;;20975654;28;20379;-62
2021/06/30 22:00:46;;;;;;;1.47;0.70;;;12.30;99.90;;;;;;20975875;28;20389;-62
2021/06/30 22:11:06;;;;;;;0.90;0.57;;;12.20;99.90;;;;;;21234124;27;1505991;-62
2021/06/30 22:21:28;;;;;;;1.60;0.43;;;12.20;99.90;;;;;;21271392;27;20382;-63
2021/06/30 22:31:48;;;;;;;0.70;0.50;;;12.20;99.90;;;;;;20976051;28;20592;-65
2021/06/30 22:42:09;;;;;;;0.40;0.30;;;12.20;99.90;;;;;;20759620;28;20389;-66
2021/06/30 22:52:29;;;;;;;0.83;0.40;;;12.10;99.90;;;;;;20976320;28;20907;-65
2021/06/30 23:02:47;;;;;;;1.73;0.40;;;12.10;99.90;;;;;;21185904;27;20495;-65
2021/06/30 23:13:08;;;;;;;1.33;0.30;;;12.30;99.90;;;;;;21348661;27;20403;-65
2021/06/30 23:23:26;;;;;;;0.57;0.40;;;12.20;99.90;;;;;;21140588;27;1461497;-63
2021/06/30 23:33:46;;;;;;;0.73;0.20;;;11.90;99.90;;;;;;21110344;27;20102;-63
2021/06/30 23:44:07;;;;;;;0.93;0.10;;;11.80;99.90;;;;;;21191559;27;20113;-65
2021/06/30 23:54:27;;;;;;;0.73;0.20;;;12.10;99.70;;;;;;21374325;27;19954;-65
